Time;durP1;ratioP1;P1;durP2;ratioP2;P2;SDS_P1;SDS_P2;PMS_P1;PMS_P2;Temp;Humidity;BMP_temperature;BMP_pressure;BME280_temperature;BME280_humidity;BME280_pressure;Samples;Min_cycle;Max_cycle;Signal;HPM_P1;HPM_P2
2023/05/15 00:02:23;;;;;;;21.55;7.00;;;;;;;10.47;100.00;95766.06;5081274;28;20051;-75
2023/05/15 00:04:50;;;;;;;16.60;6.35;;;;;;;10.52;100.00;95770.53;5090525;28;20044;-75
2023/05/15 00:07:18;;;;;;;20.33;7.15;;;;;;;10.44;100.00;95759.38;5079840;28;20049;-74
2023/05/15 00:09:44;;;;;;;17.83;6.93;;;;;;;10.59;100.00;95768.84;5071423;28;20045;-75
2023/05/15 00:12:11;;;;;;;14.27;6.65;;;;;;;10.65;100.00;95762.09;5079326;28;20059;-75
2023/05/15 00:14:37;;;;;;;15.23;6.57;;;;;;;10.69;100.00;95763.00;5072435;28;20051;-75
2023/05/15 00:17:04;;;;;;;14.90;6.22;;;;;;;10.76;100.00;95767.94;5071820;28;20051;-75
2023/05/15 00:19:30;;;;;;;16.05;6.70;;;;;;;10.75;100.00;95760.09;5077022;28;20047;-75
2023/05/15 00:21:57;;;;;;;14.82;6.70;;;;;;;10.69;100.00;95768.44;5075548;28;20056;-75
2023/05/15 00:24:25;;;;;;;15.38;6.07;;;;;;;10.75;100.00;95760.09;5079113;28;20048;-75
2023/05/15 00:26:51;;;;;;;13.93;6.40;;;;;;;10.76;100.00;95762.50;5072081;28;20044;-75
2023/05/15 00:29:18;;;;;;;14.30;5.85;;;;;;;10.80;100.00;95752.50;5078669;28;20044;-75
2023/05/15 00:31:44;;;;;;;15.82;6.15;;;;;;;10.82;100.00;95749.47;5085488;28;20051;-76
2023/05/15 00:34:10;;;;;;;20.60;6.88;;;;;;;10.84;100.00;95758.88;5097185;28;20048;-76
2023/05/15 00:36:37;;;;;;;17.35;6.90;;;;;;;10.75;100.00;95743.75;5099133;28;20036;-76
2023/05/15 00:39:04;;;;;;;19.55;6.97;;;;;;;10.70;100.00;95745.56;5099126;28;20050;-76
2023/05/15 00:41:33;;;;;;;22.58;7.53;;;;;;;10.55;100.00;95739.94;5099182;28;20094;-75
2023/05/15 00:44:00;;;;;;;22.42;7.55;;;;;;;10.24;100.00;95740.31;5096314;28;20037;-75
2023/05/15 00:46:28;;;;;;;18.73;7.95;;;;;;;10.13;100.00;95739.88;5095956;28;20063;-75
2023/05/15 00:48:57;;;;;;;21.17;8.38;;;;;;;10.06;100.00;95740.38;5095997;28;20051;-75
2023/05/15 00:51:23;;;;;;;21.50;8.57;;;;;;;10.20;100.00;95740.94;5093956;28;20411;-75
2023/05/15 00:53:51;;;;;;;23.63;8.02;;;;;;;10.37;100.00;95739.25;5092127;28;20040;-75
2023/05/15 00:56:18;;;;;;;19.30;7.63;;;;;;;10.47;100.00;95733.41;5091075;28;20040;-75
2023/05/15 00:58:47;;;;;;;19.13;7.38;;;;;;;10.52;100.00;95735.13;5092123;28;20051;-75
2023/05/15 01:01:15;;;;;;;22.95;7.82;;;;;;;10.56;100.00;95736.06;5089035;28;20059;-75
2023/05/15 01:03:42;;;;;;;24.23;7.75;;;;;;;10.59;100.00;95730.75;5085173;28;20411;-76
2023/05/15 01:06:12;;;;;;;24.58;7.75;;;;;;;10.61;100.00;95739.38;5070197;28;20045;-75
2023/05/15 01:08:42;;;;;;;23.48;7.60;;;;;;;10.61;100.00;95733.94;5070994;28;20052;-75
2023/05/15 01:11:10;;;;;;;23.42;8.10;;;;;;;10.61;100.00;95731.22;5070240;28;20040;-75
2023/05/15 01:13:36;;;;;;;18.98;7.30;;;;;;;10.61;100.00;95733.94;5070954;28;20048;-75
2023/05/15 01:16:05;;;;;;;23.33;7.97;;;;;;;10.61;100.00;95728.50;5069114;28;20083;-77
2023/05/15 01:18:32;;;;;;;19.42;7.28;;;;;;;10.52;100.00;95730.47;5083586;28;20048;-75
2023/05/15 01:21:41;;;;;;;18.38;7.22;;;;;;;10.49;100.00;95725.69;5089851;28;20052;-75
2023/05/15 01:24:25;;;;;;;22.80;7.68;;;;;;;10.47;100.00;95727.97;5085923;28;20048;-75
2023/05/15 01:27:26;;;;;;;19.10;7.20;;;;;;;10.46;100.00;95723.66;5074716;28;20075;-75
2023/05/15 01:30:00;;;;;;;18.42;6.57;;;;;;;10.50;100.00;95729.25;5060795;28;20036;-76
2023/05/15 01:32:43;;;;;;;20.50;7.57;;;;;;;10.39;100.00;95729.63;5069109;28;20085;-75
2023/05/15 01:35:16;;;;;;;21.40;7.22;;;;;;;10.44;100.00;95728.66;5069205;28;20047;-75
2023/05/15 01:37:49;;;;;;;16.92;7.13;;;;;;;10.51;100.00;95728.91;5069956;28;20033;-74
2023/05/15 01:40:17;;;;;;;23.65;7.35;;;;;;;10.56;100.00;95720.53;5069030;28;20135;-74
2023/05/15 01:42:53;;;;;;;18.73;7.10;;;;;;;10.55;100.00;95724.38;5069736;28;20032;-74
2023/05/15 01:45:23;;;;;;;17.30;6.70;;;;;;;10.58;100.00;95729.16;5069090;28;20052;-74
2023/05/15 01:47:51;;;;;;;14.38;5.97;;;;;;;10.60;100.00;95732.34;5069849;28;20033;-75
2023/05/15 01:50:20;;;;;;;17.92;7.00;;;;;;;10.58;100.00;95731.88;5069161;28;20451;-77
2023/05/15 01:52:48;;;;;;;20.10;7.38;;;;;;;10.58;100.00;95731.06;5069412;28;20423;-75
2023/05/15 01:55:16;;;;;;;14.95;6.45;;;;;;;10.60;100.00;95737.00;5068772;28;20054;-75
2023/05/15 01:57:47;;;;;;;21.63;7.10;;;;;;;10.58;100.00;95729.16;5069801;28;20052;-75
2023/05/15 02:00:14;;;;;;;18.13;7.25;;;;;;;10.56;100.00;95731.41;5069372;28;20048;-77
2023/05/15 02:02:41;;;;;;;18.15;6.97;;;;;;;10.55;100.00;95739.94;5084087;28;20044;-75
2023/05/15 02:05:09;;;;;;;22.25;7.90;;;;;;;10.53;100.00;95732.06;5088872;28;20441;-76
2023/05/15 02:07:37;;;;;;;17.42;7.47;;;;;;;10.53;100.00;95732.06;5089716;28;20120;-76
2023/05/15 02:10:04;;;;;;;19.45;7.22;;;;;;;10.52;100.00;95735.94;5088541;28;20041;-75
2023/05/15 02:12:31;;;;;;;17.77;6.60;;;;;;;10.54;100.00;95732.88;5089246;28;20051;-75
2023/05/15 02:15:03;;;;;;;19.67;7.22;;;;;;;10.55;100.00;95732.56;5089219;28;20052;-75
2023/05/15 02:17:29;;;;;;;14.65;6.82;;;;;;;10.54;100.00;95733.66;5089166;28;20040;-75
2023/05/15 02:19:56;;;;;;;19.08;7.50;;;;;;;10.55;100.00;95734.47;5089410;28;20047;-75
2023/05/15 02:22:22;;;;;;;18.52;6.95;;;;;;;10.57;100.00;95737.66;5088492;28;20048;-75
2023/05/15 02:24:49;;;;;;;17.15;7.20;;;;;;;10.53;100.00;95737.53;5089374;28;20044;-76
2023/05/15 02:27:20;;;;;;;19.67;8.20;;;;;;;10.53;100.00;95731.28;5089479;28;20055;-77
2023/05/15 02:29:59;;;;;;;19.08;7.43;;;;;;;10.52;100.00;95726.97;5093043;28;20512;-74
2023/05/15 02:32:35;;;;;;;18.08;7.70;;;;;;;10.52;100.00;95727.75;5078368;28;20044;-74
2023/05/15 02:35:12;;;;;;;17.88;7.38;;;;;;;10.36;100.00;95730.28;5081394;28;20508;-77
2023/05/15 02:37:40;;;;;;;16.02;7.18;;;;;;;10.41;100.00;95726.56;5094256;28;20064;-77
2023/05/15 02:40:09;;;;;;;21.25;7.25;;;;;;;10.44;100.00;95732.16;5093034;28;20044;-75
2023/05/15 02:42:37;;;;;;;20.02;8.07;;;;;;;10.42;100.00;95728.16;5093786;28;20406;-76
2023/05/15 02:45:05;;;;;;;17.65;7.78;;;;;;;10.37;100.00;95722.91;5092591;28;20067;-75
2023/05/15 02:47:35;;;;;;;16.67;7.03;;;;;;;10.27;100.00;95728.75;5093119;28;20055;-76
2023/05/15 02:50:02;;;;;;;20.40;8.25;;;;;;;10.07;100.00;95725.63;5092802;28;20055;-76
2023/05/15 02:52:29;;;;;;;19.80;7.97;;;;;;;10.01;100.00;95718.81;5065105;28;20036;-74
2023/05/15 02:54:55;;;;;;;18.85;7.78;;;;;;;10.02;100.00;95725.81;5087941;28;20051;-76
2023/05/15 02:57:22;;;;;;;19.42;8.20;;;;;;;9.99;100.00;95723.78;5092236;28;20048;-74
2023/05/15 02:59:48;;;;;;;20.83;8.52;;;;;;;9.94;100.00;95721.25;5077296;28;20040;-74
2023/05/15 03:02:15;;;;;;;23.73;9.13;;;;;;;9.95;100.00;95728.28;5081616;28;20052;-74
2023/05/15 03:04:42;;;;;;;22.10;9.10;;;;;;;9.93;100.00;95723.19;5092436;28;20683;-74
2023/05/15 03:07:09;;;;;;;24.10;8.98;;;;;;;9.88;100.00;95728.00;5091807;28;20404;-75
2023/05/15 03:09:35;;;;;;;23.77;9.23;;;;;;;9.86;100.00;95727.53;5092119;28;20032;-74
2023/05/15 03:12:02;;;;;;;21.75;9.27;;;;;;;9.82;100.00;95721.19;5092004;28;20423;-74
2023/05/15 03:14:28;;;;;;;25.13;10.10;;;;;;;9.80;100.00;95726.13;5092156;28;20040;-75
2023/05/15 03:16:55;;;;;;;24.05;10.02;;;;;;;9.75;100.00;95729.03;5091957;28;20465;-75
2023/05/15 03:19:21;;;;;;;23.08;10.10;;;;;;;9.76;100.00;95725.19;5091557;28;20048;-74
2023/05/15 03:21:49;;;;;;;23.40;10.30;;;;;;;9.76;100.00;95719.75;5091996;28;20067;-75
2023/05/15 03:24:16;;;;;;;28.92;12.07;;;;;;;9.67;100.00;95717.88;5090052;28;20503;-74
2023/05/15 03:26:43;;;;;;;25.73;10.50;;;;;;;9.69;100.00;95725.69;5092297;28;20042;-75
2023/05/15 03:29:10;;;;;;;24.38;11.30;;;;;;;9.59;100.00;95726.06;5091398;28;20044;-75
2023/05/15 03:31:36;;;;;;;29.05;11.57;;;;;;;9.51;100.00;95725.00;5084813;28;20408;-75
2023/05/15 03:34:03;;;;;;;31.67;13.43;;;;;;;9.52;100.00;95723.88;5071217;28;20049;-75
2023/05/15 03:36:30;;;;;;;31.40;14.07;;;;;;;9.30;100.00;95724.91;5071507;28;20040;-75
2023/05/15 03:38:58;;;;;;;35.65;14.10;;;;;;;9.18;100.00;95721.25;5070351;28;20488;-75
2023/05/15 03:41:24;;;;;;;39.65;14.10;;;;;;;9.22;100.00;95727.66;5071143;28;20040;-76
2023/05/15 03:43:51;;;;;;;36.05;14.73;;;;;;;9.29;100.00;95727.94;5071718;28;20507;-75
2023/05/15 03:46:17;;;;;;;37.67;14.55;;;;;;;9.37;100.00;95729.84;5071391;28;20404;-77
2023/05/15 03:48:44;;;;;;;34.05;13.60;;;;;;;9.42;100.00;95729.66;5071785;28;20044;-75
2023/05/15 03:51:10;;;;;;;38.60;14.50;;;;;;;9.36;100.00;95728.25;5070994;28;20044;-75
2023/05/15 03:53:37;;;;;;;36.85;14.88;;;;;;;9.32;100.00;95732.72;5071180;28;20044;-75
2023/05/15 03:56:05;;;;;;;32.28;13.85;;;;;;;9.35;100.00;95735.59;5087330;28;20043;-76
2023/05/15 03:58:31;;;;;;;35.97;14.30;;;;;;;9.38;100.00;95736.84;5091665;28;20422;-75
2023/05/15 04:00:58;;;;;;;39.53;14.95;;;;;;;9.27;100.00;95735.63;5089747;28;20067;-75
2023/05/15 04:03:24;;;;;;;38.33;15.02;;;;;;;9.22;100.00;95733.06;5089897;28;20071;-75
2023/05/15 04:05:51;;;;;;;38.45;15.50;;;;;;;9.20;100.00;95735.34;5091422;28;20044;-76
2023/05/15 04:08:17;;;;;;;45.17;16.42;;;;;;;9.16;100.00;95735.16;5090704;28;20044;-75
2023/05/15 04:10:44;;;;;;;39.22;15.25;;;;;;;9.07;100.00;95735.19;5091393;28;20127;-76
2023/05/15 04:13:12;;;;;;;55.92;17.63;;;;;;;9.01;100.00;95732.97;5090473;28;20067;-75
2023/05/15 04:15:40;;;;;;;40.08;15.55;;;;;;;8.97;100.00;95730.09;5091243;28;20047;-77
2023/05/15 04:18:06;;;;;;;42.45;15.73;;;;;;;9.02;100.00;95735.34;5090916;28;20058;-75
2023/05/15 04:20:33;;;;;;;32.65;15.07;;;;;;;9.03;100.00;95742.41;5091747;28;20044;-75
2023/05/15 04:23:00;;;;;;;43.40;16.70;;;;;;;8.97;100.00;95749.09;5091252;28;20048;-75
2023/05/15 04:25:26;;;;;;;41.75;16.95;;;;;;;9.00;100.00;95753.09;5090226;28;20044;-76
2023/05/15 04:27:53;;;;;;;39.83;15.80;;;;;;;9.09;100.00;95751.19;5090982;28;20131;-75
2023/05/15 04:30:21;;;;;;;40.90;14.43;;;;;;;9.29;100.00;95755.09;5090221;28;20048;-75
2023/05/15 04:32:47;;;;;;;33.70;14.18;;;;;;;9.45;100.00;95752.66;5079587;28;20051;-75
2023/05/15 04:35:14;;;;;;;38.65;15.57;;;;;;;9.52;100.00;95756.47;5089852;28;20044;-75
2023/05/15 04:37:41;;;;;;;35.85;14.80;;;;;;;9.53;100.00;95749.91;5078017;28;20041;-76
2023/05/15 04:40:09;;;;;;;37.20;15.15;;;;;;;9.57;100.00;95761.75;5069705;28;20040;-75
2023/05/15 04:42:36;;;;;;;31.88;14.00;;;;;;;9.61;100.00;95762.69;5070671;28;20044;-74
2023/05/15 04:45:03;;;;;;;29.38;12.80;;;;;;;9.68;100.00;95756.72;5069943;28;20052;-76
2023/05/15 04:47:31;;;;;;;29.17;13.25;;;;;;;9.68;100.00;95756.72;5070719;28;20116;-76
2023/05/15 04:49:58;;;;;;;37.20;14.77;;;;;;;9.59;100.00;95759.47;5077170;28;20059;-75
2023/05/15 04:52:24;;;;;;;31.40;13.98;;;;;;;9.59;100.00;95756.75;5090256;28;20050;-75
2023/05/15 04:54:52;;;;;;;38.97;15.27;;;;;;;9.37;100.00;95754.28;5090181;28;20388;-75
2023/05/15 04:57:18;;;;;;;39.17;15.90;;;;;;;9.34;100.00;95757.63;5080550;28;20052;-75
2023/05/15 04:59:45;;;;;;;33.70;15.13;;;;;;;9.36;100.00;95766.28;5070459;28;20063;-74
2023/05/15 05:02:11;;;;;;;44.67;16.05;;;;;;;9.32;100.00;95754.47;5077978;28;20074;-75
2023/05/15 05:04:42;;;;;;;40.15;16.65;;;;;;;9.35;100.00;95761.97;5070025;28;20109;-75
2023/05/15 05:07:11;;;;;;;38.95;15.57;;;;;;;9.39;100.00;95754.75;5069593;28;20052;-75
2023/05/15 05:09:39;;;;;;;30.85;14.50;;;;;;;9.38;100.00;95764.03;5070135;28;20106;-75
2023/05/15 05:12:06;;;;;;;38.67;15.73;;;;;;;9.33;100.00;95764.22;5069677;28;20041;-74
2023/05/15 05:14:33;;;;;;;33.58;13.77;;;;;;;9.34;100.00;95758.47;5070480;28;20044;-75
2023/05/15 05:16:59;;;;;;;37.38;15.45;;;;;;;9.36;100.00;95769.00;5071121;28;20045;-74
2023/05/15 05:19:26;;;;;;;40.30;14.50;;;;;;;9.26;100.00;95766.63;5069832;28;20052;-74
2023/05/15 05:21:54;;;;;;;31.65;13.35;;;;;;;9.33;100.00;95764.22;5084286;28;20040;-74
2023/05/15 05:24:21;;;;;;;41.42;16.00;;;;;;;9.27;100.00;95769.00;5089700;28;20051;-75
2023/05/15 05:26:48;;;;;;;38.47;15.13;;;;;;;9.33;100.00;95766.91;5090337;28;20047;-74
2023/05/15 05:29:14;;;;;;;37.42;14.63;;;;;;;9.43;100.00;95771.22;5089937;28;20040;-74
2023/05/15 05:31:41;;;;;;;37.88;15.35;;;;;;;9.47;100.00;95767.53;5086493;28;20040;-74
2023/05/15 05:34:08;;;;;;;36.45;14.10;;;;;;;9.54;100.00;95778.69;5089541;28;20046;-74
2023/05/15 05:36:35;;;;;;;33.58;14.02;;;;;;;9.60;100.00;95776.59;5090046;28;20038;-74
2023/05/15 05:39:04;;;;;;;33.17;14.80;;;;;;;9.53;100.00;95777.09;5082954;28;20045;-74
2023/05/15 05:41:31;;;;;;;47.55;16.08;;;;;;;9.53;100.00;95782.53;5068238;28;20407;-76
2023/05/15 05:43:57;;;;;;;37.03;15.48;;;;;;;9.56;100.00;95776.47;5067677;28;20040;-74
2023/05/15 05:46:25;;;;;;;38.92;15.43;;;;;;;9.57;100.00;95779.97;5069193;28;20048;-74
2023/05/15 05:48:51;;;;;;;40.88;16.27;;;;;;;9.45;100.00;95786.09;5069373;28;20148;-76
2023/05/15 05:51:18;;;;;;;37.53;15.48;;;;;;;9.55;100.00;95784.91;5069311;28;20056;-75
2023/05/15 05:53:44;;;;;;;39.08;15.63;;;;;;;9.52;100.00;95785.59;5069754;28;20044;-75
2023/05/15 05:56:12;;;;;;;41.05;16.45;;;;;;;9.39;100.00;95788.16;5069998;28;20048;-75
2023/05/15 05:58:39;;;;;;;41.10;15.95;;;;;;;9.49;100.00;95781.56;5070243;28;20500;-76
2023/05/15 06:01:05;;;;;;;43.25;18.85;;;;;;;9.45;100.00;95791.53;5070020;28;20056;-75
2023/05/15 06:03:32;;;;;;;39.90;16.25;;;;;;;9.49;100.00;95792.44;5073832;28;20044;-76
2023/05/15 06:05:59;;;;;;;42.90;16.85;;;;;;;9.49;100.00;95789.72;5076512;28;20052;-75
2023/05/15 06:08:26;;;;;;;49.40;18.45;;;;;;;9.39;100.00;95792.78;5077060;28;20047;-76
2023/05/15 06:10:52;;;;;;;52.50;20.13;;;;;;;9.40;100.00;95788.97;5077798;28;20044;-75
2023/05/15 06:13:21;;;;;;;43.22;17.83;;;;;;;9.49;100.00;95797.09;5079509;28;20128;-75
2023/05/15 06:15:47;;;;;;;45.42;17.48;;;;;;;9.45;100.00;95787.97;5079833;28;20071;-75
2023/05/15 06:18:14;;;;;;;44.03;17.60;;;;;;;9.55;100.00;95785.75;5080989;28;20044;-74
2023/05/15 06:20:41;;;;;;;44.28;17.65;;;;;;;9.56;100.00;95790.03;5080485;28;20488;-76
2023/05/15 06:23:08;;;;;;;57.78;19.35;;;;;;;9.61;100.00;95789.88;5081121;28;20530;-75
2023/05/15 06:25:34;;;;;;;45.17;17.23;;;;;;;9.63;100.00;95795.78;5080836;28;20037;-74
2023/05/15 06:28:01;;;;;;;47.42;17.83;;;;;;;9.68;100.00;95795.59;5081756;28;20048;-76
2023/05/15 06:30:29;;;;;;;51.33;19.98;;;;;;;9.66;100.00;95797.06;5079857;28;20041;-74
2023/05/15 06:32:55;;;;;;;41.53;17.40;;;;;;;9.66;100.00;95797.84;5079966;28;20052;-74
2023/05/15 06:35:22;;;;;;;48.45;18.40;;;;;;;9.74;100.00;95796.22;5078925;28;20052;-75
2023/05/15 06:37:50;;;;;;;45.33;17.83;;;;;;;9.75;100.00;95799.72;5080418;28;20048;-75
2023/05/15 06:40:17;;;;;;;47.70;18.95;;;;;;;9.87;100.00;95800.66;5079585;28;20045;-75
2023/05/15 06:42:43;;;;;;;46.45;18.63;;;;;;;9.87;100.00;95799.84;5079472;28;20123;-75
2023/05/15 06:45:10;;;;;;;51.67;20.13;;;;;;;9.77;100.00;95797.50;5079129;28;20044;-75
2023/05/15 06:47:38;;;;;;;51.55;21.25;;;;;;;9.74;100.00;95792.69;5079443;28;20048;-75
2023/05/15 06:50:05;;;;;;;54.50;20.63;;;;;;;9.70;100.00;95794.47;5078180;28;20045;-75
2023/05/15 06:52:32;;;;;;;48.13;18.92;;;;;;;9.81;100.00;95804.66;5073958;28;20056;-74
2023/05/15 06:54:58;;;;;;;47.63;18.98;;;;;;;9.85;100.00;95802.06;5073344;28;20052;-74
2023/05/15 06:57:25;;;;;;;55.05;21.33;;;;;;;9.68;100.00;95800.22;5072942;28;20049;-75
2023/05/15 06:59:51;;;;;;;56.10;21.27;;;;;;;9.71;100.00;95801.50;5073388;28;20052;-75
2023/05/15 07:02:18;;;;;;;56.28;22.33;;;;;;;9.72;100.00;95803.09;5072646;28;20063;-74
2023/05/15 07:04:45;;;;;;;50.20;21.30;;;;;;;9.67;100.00;95810.31;5072749;28;20045;-74
2023/05/15 07:07:12;;;;;;;62.70;23.33;;;;;;;9.58;100.00;95801.38;5072544;28;20058;-74
2023/05/15 07:09:38;;;;;;;53.30;20.67;;;;;;;9.55;100.00;95807.47;5072771;28;20044;-74
2023/05/15 07:12:05;;;;;;;54.33;21.85;;;;;;;9.71;100.00;95806.94;5072317;28;20049;-75
2023/05/15 07:14:32;;;;;;;58.35;22.45;;;;;;;9.75;100.00;95805.94;5072651;28;20044;-75
2023/05/15 07:16:59;;;;;;;51.67;20.30;;;;;;;9.79;100.00;95806.91;5073065;28;20052;-75
2023/05/15 07:19:25;;;;;;;49.10;20.05;;;;;;;9.87;100.00;95806.09;5073092;28;20068;-75
2023/05/15 07:21:53;;;;;;;54.88;20.67;;;;;;;9.97;100.00;95810.38;5072868;28;20036;-74
2023/05/15 07:24:20;;;;;;;50.45;19.60;;;;;;;10.00;100.00;95812.41;5072347;28;20052;-75
2023/05/15 07:26:46;;;;;;;53.90;21.40;;;;;;;10.00;100.00;95811.63;5072957;28;20041;-75
2023/05/15 07:29:13;;;;;;;49.50;19.35;;;;;;;10.09;100.00;95809.66;5071872;28;20041;-74
2023/05/15 07:31:40;;;;;;;54.92;23.13;;;;;;;9.81;100.00;95815.53;5072577;28;20068;-75
2023/05/15 07:34:07;;;;;;;51.50;21.48;;;;;;;9.90;100.00;95816.28;5072313;28;20064;-74
2023/05/15 07:36:34;;;;;;;47.58;20.38;;;;;;;9.89;100.00;95808.47;5072949;28;20574;-74
2023/05/15 07:39:05;;;;;;;50.30;21.45;;;;;;;9.93;100.00;95812.13;5073496;28;20044;-75
2023/05/15 07:41:32;;;;;;;45.22;19.25;;;;;;;10.10;100.00;95812.03;5075234;28;20041;-75
2023/05/15 07:43:59;;;;;;;57.70;23.05;;;;;;;9.96;100.00;95816.91;5075549;28;20472;-75
2023/05/15 07:46:25;;;;;;;50.97;21.30;;;;;;;9.92;100.00;95816.78;5074213;28;20049;-74
2023/05/15 07:48:52;;;;;;;48.05;21.58;;;;;;;9.96;100.00;95811.47;5073805;28;20044;-74
2023/05/15 07:51:18;;;;;;;52.63;22.25;;;;;;;10.01;100.00;95808.56;5073114;28;20403;-74
2023/05/15 07:53:45;;;;;;;52.78;22.10;;;;;;;10.04;100.00;95807.91;5073344;28;20048;-74
2023/05/15 07:56:13;;;;;;;53.35;22.98;;;;;;;9.98;100.00;95809.22;5072042;28;20045;-74
2023/05/15 07:58:39;;;;;;;51.20;23.10;;;;;;;10.01;100.00;95807.78;5072031;28;20047;-74
2023/05/15 08:01:06;;;;;;;48.83;21.63;;;;;;;10.18;100.00;95808.50;5071805;28;20496;-74
2023/05/15 08:03:32;;;;;;;48.30;21.55;;;;;;;10.03;100.00;95814.50;5071887;28;20048;-75
2023/05/15 08:05:59;;;;;;;45.55;19.88;;;;;;;9.98;100.00;95822.84;5071597;28;20049;-75
2023/05/15 08:08:25;;;;;;;45.20;19.83;;;;;;;10.04;100.00;95821.53;5070754;28;20531;-74
2023/05/15 08:10:52;;;;;;;47.30;20.23;;;;;;;10.11;100.00;95819.06;5071198;28;20496;-74
2023/05/15 08:13:20;;;;;;;52.80;21.27;;;;;;;10.28;100.00;95817.41;5070795;28;20041;-74
2023/05/15 08:15:46;;;;;;;45.72;20.10;;;;;;;10.42;100.00;95823.44;5071262;28;20045;-75
2023/05/15 08:18:13;;;;;;;51.20;21.77;;;;;;;10.44;100.00;95821.97;5070889;28;20052;-75
2023/05/15 08:20:39;;;;;;;42.95;20.10;;;;;;;10.31;100.00;95822.22;5071024;28;20404;-74
2023/05/15 08:23:06;;;;;;;39.65;18.50;;;;;;;10.33;100.00;95822.66;5070589;28;20238;-74
2023/05/15 08:25:32;;;;;;;37.13;17.38;;;;;;;10.50;100.00;95819.88;5070688;28;20048;-74
2023/05/15 08:27:59;;;;;;;37.45;17.98;;;;;;;10.53;100.00;95819.19;5071043;28;20051;-74
2023/05/15 08:30:26;;;;;;;32.92;16.88;;;;;;;10.53;100.00;95816.47;5070571;28;20044;-74
2023/05/15 08:32:53;;;;;;;34.72;17.42;;;;;;;10.70;100.00;95823.72;5071165;28;20047;-75
2023/05/15 08:35:19;;;;;;;31.65;16.38;;;;;;;10.67;100.00;95816.22;5070230;28;20520;-75
2023/05/15 08:37:46;;;;;;;33.08;16.45;;;;;;;10.74;100.00;95816.47;5070652;28;20535;-74
2023/05/15 08:40:13;;;;;;;33.88;15.93;;;;;;;10.81;100.00;95829.59;5070551;28;20051;-74
2023/05/15 08:42:44;;;;;;;34.30;16.10;;;;;;;10.95;100.00;95817.28;5070865;28;20071;-74
2023/05/15 08:45:12;;;;;;;33.78;16.23;;;;;;;11.20;100.00;95820.91;5069426;28;20053;-75
2023/05/15 08:47:41;;;;;;;27.98;13.63;;;;;;;11.07;100.00;95816.56;5070652;28;20044;-74
2023/05/15 08:50:11;;;;;;;28.35;12.70;;;;;;;11.05;100.00;95818.78;5070078;28;20055;-74
2023/05/15 08:52:40;;;;;;;28.48;12.82;;;;;;;11.15;100.00;95818.38;5070483;28;20439;-74
2023/05/15 08:55:08;;;;;;;25.98;12.07;;;;;;;11.18;100.00;95811.47;5070345;28;20045;-76
2023/05/15 08:57:35;;;;;;;26.85;12.00;;;;;;;11.35;100.00;95814.03;5071206;28;20056;-74
2023/05/15 09:00:04;;;;;;;23.00;10.90;;;;;;;11.35;100.00;95816.75;5070380;28;20051;-75
2023/05/15 09:02:31;;;;;;;20.48;9.48;;;;;;;11.47;100.00;95814.06;5071132;28;20120;-74
2023/05/15 09:04:59;;;;;;;26.23;10.98;;;;;;;11.45;100.00;95810.09;5070574;28;20049;-74
2023/05/15 09:07:25;;;;;;;22.38;10.65;;;;;;;11.56;100.00;95805.81;5070690;28;20047;-73
2023/05/15 09:09:54;;;;;;;22.95;9.52;;;;;;;11.59;100.00;95805.16;5070294;28;20044;-74
2023/05/15 09:12:24;;;;;;;17.85;9.27;;;;;;;11.62;100.00;95799.00;5070073;28;20049;-74
2023/05/15 09:14:50;;;;;;;24.73;10.75;;;;;;;11.77;100.00;95794.81;5071038;28;20047;-73
2023/05/15 09:17:17;;;;;;;25.60;11.23;;;;;;;11.90;100.00;95793.75;5070364;28;20407;-73
2023/05/15 09:19:43;;;;;;;25.95;11.93;;;;;;;12.28;100.00;95787.94;5070728;28;20070;-75
2023/05/15 09:22:22;;;;;;;24.65;11.23;;;;;;;12.52;100.00;95778.09;5071363;28;20047;-74
2023/05/15 09:24:51;;;;;;;20.83;9.75;;;;;;;12.58;100.00;95774.03;5073189;28;20052;-74
2023/05/15 09:27:17;;;;;;;18.80;9.45;;;;;;;12.73;100.00;95773.28;5070375;28;20044;-75
2023/05/15 09:29:44;;;;;;;18.70;7.80;;;;;;;12.97;98.20;95768.91;5070313;28;20037;-77
2023/05/15 09:32:13;;;;;;;22.00;8.98;;;;;;;13.11;94.95;95765.78;5069811;28;20127;-76
2023/05/15 09:34:41;;;;;;;16.67;8.80;;;;;;;13.37;100.00;95765.34;5070013;28;20056;-74
2023/05/15 09:37:09;;;;;;;20.17;9.02;;;;;;;13.38;100.00;95764.19;5068630;28;20048;-74
2023/05/15 09:39:42;;;;;;;17.50;8.55;;;;;;;13.53;100.00;95769.69;5069996;28;20119;-73
2023/05/15 09:42:10;;;;;;;18.40;9.90;;;;;;;13.73;100.00;95767.03;5069525;28;20105;-73
2023/05/15 09:44:41;;;;;;;21.00;9.27;;;;;;;14.01;100.00;95772.44;5069397;28;20519;-74
2023/05/15 09:47:08;;;;;;;15.30;7.63;;;;;;;14.20;95.87;95775.25;5069170;28;20055;-74
2023/05/15 09:49:35;;;;;;;17.15;8.02;;;;;;;14.21;90.80;95774.09;5069907;28;20055;-74
2023/05/15 09:52:02;;;;;;;16.58;7.55;;;;;;;14.36;89.53;95765.06;5069258;28;20519;-76
2023/05/15 09:54:30;;;;;;;14.82;7.43;;;;;;;14.35;95.01;95766.22;5069781;28;20071;-74
2023/05/15 09:57:07;;;;;;;16.63;8.18;;;;;;;14.58;96.16;95768.31;5069566;28;20040;-75
2023/05/15 09:59:34;;;;;;;19.27;8.65;;;;;;;14.58;94.63;95765.59;5069705;28;20664;-75
2023/05/15 10:02:00;;;;;;;10.90;5.88;;;;;;;14.60;86.44;95763.25;5069788;28;20041;-74
2023/05/15 10:04:26;;;;;;;13.07;7.25;;;;;;;14.83;91.27;95760.66;5069620;28;20242;-75
2023/05/15 10:06:53;;;;;;;18.05;8.10;;;;;;;14.81;92.07;95760.19;5069702;28;20047;-75
2023/05/15 10:09:20;;;;;;;13.43;7.70;;;;;;;14.80;91.94;95753.91;5069115;28;20126;-75
2023/05/15 10:11:51;;;;;;;16.00;7.22;;;;;;;14.98;91.22;95753.47;5069528;28;20071;-77
2023/05/15 10:14:21;;;;;;;21.63;7.78;;;;;;;15.15;87.50;95753.06;5069011;28;20749;-74
2023/05/15 10:16:48;;;;;;;11.60;6.05;;;;;;;15.18;76.82;95754.28;5069658;28;20063;-74
2023/05/15 10:19:15;;;;;;;15.43;6.97;;;;;;;15.21;79.40;95751.63;5069061;28;20044;-75
2023/05/15 10:21:42;;;;;;;13.68;6.60;;;;;;;15.29;82.93;95736.88;5069645;28;20044;-75
2023/05/15 10:24:08;;;;;;;16.83;7.70;;;;;;;15.25;85.02;95735.25;5069165;28;20049;-75
2023/05/15 10:26:37;;;;;;;15.02;7.55;;;;;;;15.30;91.79;95727.50;5070324;28;20048;-75
2023/05/15 10:29:06;;;;;;;17.73;7.97;;;;;;;15.23;86.26;95732.84;5070027;28;20512;-75
2023/05/15 10:31:35;;;;;;;13.27;6.57;;;;;;;15.37;89.66;95733.09;5070746;28;20044;-75
2023/05/15 10:34:02;;;;;;;16.20;7.60;;;;;;;15.24;81.65;95728.13;5069755;28;20071;-76
2023/05/15 10:36:30;;;;;;;13.88;6.45;;;;;;;14.93;76.94;95729.09;5069970;28;20036;-74
2023/05/15 10:38:59;;;;;;;18.02;7.03;;;;;;;14.94;83.87;95722.47;5070598;28;20064;-75
2023/05/15 10:41:28;;;;;;;10.77;6.10;;;;;;;15.00;85.29;95726.50;5069564;28;20057;-75
2023/05/15 10:43:57;;;;;;;11.30;6.28;;;;;;;14.94;87.61;95722.47;5075915;28;20037;-76
2023/05/15 10:46:24;;;;;;;13.70;6.85;;;;;;;14.84;86.40;95715.63;5077223;28;20037;-75
2023/05/15 10:48:52;;;;;;;14.98;6.85;;;;;;;14.83;88.17;95712.09;5079310;28;20051;-74
2023/05/15 10:51:25;;;;;;;15.30;7.35;;;;;;;14.84;89.37;95710.94;5081250;28;20131;-74
2023/05/15 10:53:52;;;;;;;18.70;7.20;;;;;;;14.82;87.42;95707.75;5081689;28;20056;-74
2023/05/15 10:56:18;;;;;;;15.88;7.53;;;;;;;14.83;88.29;95714.84;5080349;28;20066;-74
2023/05/15 10:58:47;;;;;;;17.17;7.53;;;;;;;14.85;89.20;95706.25;5074375;28;20071;-74
2023/05/15 11:01:25;;;;;;;15.55;7.40;;;;;;;14.83;90.42;95698.38;5073335;28;20086;-74
2023/05/15 11:04:05;;;;;;;17.13;7.13;;;;;;;14.75;88.74;95701.34;5073924;28;20048;-75
2023/05/15 11:06:31;;;;;;;14.63;6.30;;;;;;;14.93;88.54;95698.94;5072935;28;20056;-76
2023/05/15 11:09:36;;;;;;;13.38;6.43;;;;;;;14.97;88.07;95691.59;5073144;28;20112;-77
2023/05/15 11:12:03;;;;;;;15.45;7.07;;;;;;;14.96;84.46;95690.00;5072115;28;20106;-76
2023/05/15 11:14:31;;;;;;;15.73;6.93;;;;;;;14.90;84.43;95691.47;5072286;28;20400;-75
2023/05/15 11:17:03;;;;;;;14.68;6.82;;;;;;;14.87;85.97;95693.75;5072716;28;20048;-75
2023/05/15 11:19:54;;;;;;;18.10;7.63;;;;;;;14.82;86.74;95679.53;5072584;28;20055;-76
2023/05/15 11:22:22;;;;;;;16.02;6.90;;;;;;;14.83;88.43;95678.41;5071955;28;20090;-75